sensor_id;sensor_type;location;lat;lon;timestamp;P1;durP1;ratioP1;P2;durP2;ratioP2
46651;SDS011;32377;52.182;5.398;2023-12-22T00:01:29;22.02;;;3.88;;
46651;SDS011;32377;52.182;5.398;2023-12-22T00:03:54;19.25;;;3.53;;
46651;SDS011;32377;52.182;5.398;2023-12-22T00:06:20;17.92;;;2.35;;
46651;SDS011;32377;52.182;5.398;2023-12-22T00:08:46;12.57;;;2.40;;
46651;SDS011;32377;52.182;5.398;2023-12-22T00:11:11;9.00;;;1.75;;
46651;SDS011;32377;52.182;5.398;2023-12-22T00:13:37;10.32;;;1.55;;
46651;SDS011;32377;52.182;5.398;2023-12-22T00:16:02;17.00;;;2.53;;
46651;SDS011;32377;52.182;5.398;2023-12-22T00:18:28;10.23;;;1.75;;
46651;SDS011;32377;52.182;5.398;2023-12-22T00:20:54;13.40;;;2.20;;
46651;SDS011;32377;52.182;5.398;2023-12-22T00:23:20;16.55;;;2.38;;
46651;SDS011;32377;52.182;5.398;2023-12-22T00:25:45;17.60;;;2.10;;
46651;SDS011;32377;52.182;5.398;2023-12-22T00:28:11;15.07;;;1.77;;
46651;SDS011;32377;52.182;5.398;2023-12-22T00:30:36;13.60;;;2.83;;
46651;SDS011;32377;52.182;5.398;2023-12-22T00:33:02;16.42;;;2.05;;
46651;SDS011;32377;52.182;5.398;2023-12-22T00:35:27;18.70;;;1.98;;
46651;SDS011;32377;52.182;5.398;2023-12-22T00:37:53;14.85;;;3.33;;
46651;SDS011;32377;52.182;5.398;2023-12-22T00:40:19;16.13;;;2.95;;
46651;SDS011;32377;52.182;5.398;2023-12-22T00:42:44;15.45;;;2.10;;
46651;SDS011;32377;52.182;5.398;2023-12-22T00:45:10;18.08;;;2.35;;
46651;SDS011;32377;52.182;5.398;2023-12-22T00:47:36;17.23;;;1.88;;
46651;SDS011;32377;52.182;5.398;2023-12-22T00:50:02;11.77;;;2.10;;
46651;SDS011;32377;52.182;5.398;2023-12-22T00:52:29;15.00;;;2.25;;
46651;SDS011;32377;52.182;5.398;2023-12-22T00:54:55;9.98;;;1.90;;
46651;SDS011;32377;52.182;5.398;2023-12-22T00:57:20;12.85;;;1.65;;
46651;SDS011;32377;52.182;5.398;2023-12-22T00:59:46;12.73;;;2.03;;
46651;SDS011;32377;52.182;5.398;2023-12-22T01:02:16;14.40;;;2.15;;
46651;SDS011;32377;52.182;5.398;2023-12-22T01:04:42;16.35;;;3.78;;
46651;SDS011;32377;52.182;5.398;2023-12-22T01:07:08;11.27;;;2.05;;
46651;SDS011;32377;52.182;5.398;2023-12-22T01:09:35;11.68;;;2.03;;
46651;SDS011;32377;52.182;5.398;2023-12-22T01:12:02;18.48;;;2.03;;
46651;SDS011;32377;52.182;5.398;2023-12-22T01:14:29;19.65;;;2.20;;
46651;SDS011;32377;52.182;5.398;2023-12-22T01:16:54;17.20;;;2.20;;
46651;SDS011;32377;52.182;5.398;2023-12-22T01:19:20;20.48;;;2.25;;
46651;SDS011;32377;52.182;5.398;2023-12-22T01:21:46;16.98;;;2.22;;
46651;SDS011;32377;52.182;5.398;2023-12-22T01:24:11;14.20;;;2.78;;
46651;SDS011;32377;52.182;5.398;2023-12-22T01:26:37;17.38;;;2.88;;
46651;SDS011;32377;52.182;5.398;2023-12-22T01:29:03;12.63;;;2.40;;
46651;SDS011;32377;52.182;5.398;2023-12-22T01:31:28;15.05;;;2.13;;
46651;SDS011;32377;52.182;5.398;2023-12-22T01:33:54;17.92;;;2.40;;
46651;SDS011;32377;52.182;5.398;2023-12-22T01:36:20;12.60;;;1.70;;
46651;SDS011;32377;52.182;5.398;2023-12-22T01:38:45;18.40;;;2.35;;
46651;SDS011;32377;52.182;5.398;2023-12-22T01:41:11;23.00;;;3.33;;
46651;SDS011;32377;52.182;5.398;2023-12-22T01:43:36;16.63;;;2.55;;
46651;SDS011;32377;52.182;5.398;2023-12-22T01:46:02;22.00;;;4.18;;
46651;SDS011;32377;52.182;5.398;2023-12-22T01:48:28;17.40;;;2.78;;
46651;SDS011;32377;52.182;5.398;2023-12-22T01:50:55;15.43;;;2.70;;
46651;SDS011;32377;52.182;5.398;2023-12-22T01:53:23;17.58;;;2.53;;
46651;SDS011;32377;52.182;5.398;2023-12-22T01:55:50;13.85;;;2.05;;
46651;SDS011;32377;52.182;5.398;2023-12-22T01:58:17;17.60;;;3.03;;
46651;SDS011;32377;52.182;5.398;2023-12-22T02:00:44;16.88;;;2.78;;
46651;SDS011;32377;52.182;5.398;2023-12-22T02:03:10;21.75;;;2.90;;
46651;SDS011;32377;52.182;5.398;2023-12-22T02:05:35;16.88;;;2.80;;
46651;SDS011;32377;52.182;5.398;2023-12-22T02:08:01;23.25;;;3.50;;
46651;SDS011;32377;52.182;5.398;2023-12-22T02:10:27;21.88;;;2.63;;
46651;SDS011;32377;52.182;5.398;2023-12-22T02:12:53;24.55;;;3.80;;
46651;SDS011;32377;52.182;5.398;2023-12-22T02:15:18;15.60;;;2.75;;
46651;SDS011;32377;52.182;5.398;2023-12-22T02:17:48;26.63;;;3.50;;
46651;SDS011;32377;52.182;5.398;2023-12-22T02:20:15;20.02;;;3.35;;
46651;SDS011;32377;52.182;5.398;2023-12-22T02:22:41;23.95;;;3.33;;
46651;SDS011;32377;52.182;5.398;2023-12-22T02:25:07;28.48;;;4.82;;
46651;SDS011;32377;52.182;5.398;2023-12-22T02:27:47;22.40;;;4.03;;
46651;SDS011;32377;52.182;5.398;2023-12-22T02:32:57;28.48;;;5.63;;
46651;SDS011;32377;52.182;5.398;2023-12-22T02:35:25;30.23;;;3.97;;
46651;SDS011;32377;52.182;5.398;2023-12-22T02:37:53;30.92;;;4.40;;
46651;SDS011;32377;52.182;5.398;2023-12-22T02:40:21;34.78;;;4.05;;
46651;SDS011;32377;52.182;5.398;2023-12-22T02:42:48;30.08;;;4.68;;
46651;SDS011;32377;52.182;5.398;2023-12-22T02:45:15;26.30;;;5.15;;
46651;SDS011;32377;52.182;5.398;2023-12-22T02:47:41;27.90;;;3.92;;
46651;SDS011;32377;52.182;5.398;2023-12-22T02:50:07;37.80;;;5.68;;
46651;SDS011;32377;52.182;5.398;2023-12-22T02:52:34;35.35;;;3.90;;
46651;SDS011;32377;52.182;5.398;2023-12-22T02:55:00;25.23;;;5.03;;
46651;SDS011;32377;52.182;5.398;2023-12-22T02:57:26;25.85;;;4.82;;
46651;SDS011;32377;52.182;5.398;2023-12-22T02:59:51;31.25;;;4.60;;
46651;SDS011;32377;52.182;5.398;2023-12-22T03:02:17;31.55;;;4.65;;
46651;SDS011;32377;52.182;5.398;2023-12-22T03:04:43;37.33;;;4.70;;
46651;SDS011;32377;52.182;5.398;2023-12-22T03:07:10;29.23;;;5.72;;
46651;SDS011;32377;52.182;5.398;2023-12-22T03:09:36;27.33;;;4.25;;
46651;SDS011;32377;52.182;5.398;2023-12-22T03:12:01;22.17;;;3.63;;
46651;SDS011;32377;52.182;5.398;2023-12-22T03:14:31;19.67;;;3.10;;
46651;SDS011;32377;52.182;5.398;2023-12-22T03:17:00;10.80;;;2.25;;
46651;SDS011;32377;52.182;5.398;2023-12-22T03:19:26;11.43;;;1.85;;
46651;SDS011;32377;52.182;5.398;2023-12-22T03:21:51;12.25;;;1.83;;
46651;SDS011;32377;52.182;5.398;2023-12-22T03:24:17;16.50;;;2.33;;
46651;SDS011;32377;52.182;5.398;2023-12-22T03:26:47;12.50;;;2.28;;
46651;SDS011;32377;52.182;5.398;2023-12-22T03:29:13;24.00;;;2.53;;
46651;SDS011;32377;52.182;5.398;2023-12-22T03:31:40;24.05;;;2.75;;
46651;SDS011;32377;52.182;5.398;2023-12-22T03:34:06;15.07;;;2.55;;
46651;SDS011;32377;52.182;5.398;2023-12-22T03:36:31;13.90;;;2.17;;
46651;SDS011;32377;52.182;5.398;2023-12-22T03:38:57;17.80;;;1.98;;
46651;SDS011;32377;52.182;5.398;2023-12-22T03:41:23;15.07;;;1.75;;
46651;SDS011;32377;52.182;5.398;2023-12-22T03:43:48;11.88;;;1.90;;
46651;SDS011;32377;52.182;5.398;2023-12-22T03:46:14;12.13;;;2.63;;
46651;SDS011;32377;52.182;5.398;2023-12-22T03:48:40;12.40;;;2.15;;
46651;SDS011;32377;52.182;5.398;2023-12-22T03:51:06;12.38;;;1.50;;
46651;SDS011;32377;52.182;5.398;2023-12-22T03:53:31;12.70;;;1.65;;
46651;SDS011;32377;52.182;5.398;2023-12-22T03:55:57;9.55;;;1.63;;
46651;SDS011;32377;52.182;5.398;2023-12-22T03:58:22;10.75;;;1.48;;
46651;SDS011;32377;52.182;5.398;2023-12-22T04:00:48;9.55;;;1.50;;
46651;SDS011;32377;52.182;5.398;2023-12-22T04:03:13;10.77;;;1.35;;
46651;SDS011;32377;52.182;5.398;2023-12-22T04:05:39;10.63;;;1.77;;
46651;SDS011;32377;52.182;5.398;2023-12-22T04:08:05;9.15;;;3.17;;
46651;SDS011;32377;52.182;5.398;2023-12-22T04:10:31;12.27;;;1.90;;
46651;SDS011;32377;52.182;5.398;2023-12-22T04:12:56;20.15;;;2.38;;
46651;SDS011;32377;52.182;5.398;2023-12-22T04:15:22;18.58;;;2.97;;
46651;SDS011;32377;52.182;5.398;2023-12-22T04:17:47;20.00;;;3.10;;
46651;SDS011;32377;52.182;5.398;2023-12-22T04:20:14;17.98;;;3.53;;
46651;SDS011;32377;52.182;5.398;2023-12-22T04:22:39;16.38;;;2.33;;
46651;SDS011;32377;52.182;5.398;2023-12-22T04:25:05;24.58;;;2.80;;
46651;SDS011;32377;52.182;5.398;2023-12-22T04:27:31;16.58;;;2.65;;
46651;SDS011;32377;52.182;5.398;2023-12-22T04:29:57;14.98;;;2.40;;
46651;SDS011;32377;52.182;5.398;2023-12-22T04:32:22;27.17;;;3.10;;
46651;SDS011;32377;52.182;5.398;2023-12-22T04:34:48;15.35;;;2.70;;
46651;SDS011;32377;52.182;5.398;2023-12-22T04:37:13;17.55;;;3.35;;
46651;SDS011;32377;52.182;5.398;2023-12-22T04:39:39;13.55;;;2.60;;
46651;SDS011;32377;52.182;5.398;2023-12-22T04:42:05;21.98;;;2.90;;
46651;SDS011;32377;52.182;5.398;2023-12-22T04:44:31;22.60;;;3.03;;
46651;SDS011;32377;52.182;5.398;2023-12-22T04:46:56;18.48;;;3.08;;
46651;SDS011;32377;52.182;5.398;2023-12-22T04:49:22;26.27;;;3.92;;
46651;SDS011;32377;52.182;5.398;2023-12-22T04:51:47;18.98;;;2.85;;
46651;SDS011;32377;52.182;5.398;2023-12-22T04:54:13;28.13;;;5.25;;
46651;SDS011;32377;52.182;5.398;2023-12-22T04:56:38;21.08;;;3.50;;
46651;SDS011;32377;52.182;5.398;2023-12-22T04:59:04;26.23;;;4.63;;
46651;SDS011;32377;52.182;5.398;2023-12-22T05:01:29;24.08;;;4.15;;
46651;SDS011;32377;52.182;5.398;2023-12-22T05:03:55;34.50;;;4.70;;
46651;SDS011;32377;52.182;5.398;2023-12-22T05:06:21;33.28;;;3.85;;
46651;SDS011;32377;52.182;5.398;2023-12-22T05:08:46;18.05;;;3.30;;
46651;SDS011;32377;52.182;5.398;2023-12-22T05:11:12;23.88;;;3.63;;
46651;SDS011;32377;52.182;5.398;2023-12-22T05:13:38;26.10;;;4.20;;
46651;SDS011;32377;52.182;5.398;2023-12-22T05:16:03;26.65;;;3.63;;
46651;SDS011;32377;52.182;5.398;2023-12-22T05:18:29;36.30;;;4.47;;
46651;SDS011;32377;52.182;5.398;2023-12-22T05:20:55;28.98;;;4.40;;
46651;SDS011;32377;52.182;5.398;2023-12-22T05:23:20;30.52;;;4.65;;
46651;SDS011;32377;52.182;5.398;2023-12-22T05:25:46;20.45;;;4.55;;
46651;SDS011;32377;52.182;5.398;2023-12-22T05:28:12;43.13;;;5.30;;
46651;SDS011;32377;52.182;5.398;2023-12-22T05:30:37;30.33;;;4.32;;
46651;SDS011;32377;52.182;5.398;2023-12-22T05:33:03;32.63;;;4.35;;
46651;SDS011;32377;52.182;5.398;2023-12-22T05:35:29;25.52;;;4.07;;
46651;SDS011;32377;52.182;5.398;2023-12-22T05:37:54;36.20;;;5.13;;
46651;SDS011;32377;52.182;5.398;2023-12-22T05:40:20;25.95;;;3.65;;
46651;SDS011;32377;52.182;5.398;2023-12-22T05:42:45;26.63;;;3.85;;
46651;SDS011;32377;52.182;5.398;2023-12-22T05:45:11;30.25;;;6.10;;
46651;SDS011;32377;52.182;5.398;2023-12-22T05:47:38;26.98;;;3.63;;
46651;SDS011;32377;52.182;5.398;2023-12-22T05:50:04;16.35;;;3.10;;
46651;SDS011;32377;52.182;5.398;2023-12-22T05:52:30;28.27;;;5.25;;
46651;SDS011;32377;52.182;5.398;2023-12-22T05:54:56;25.17;;;4.03;;
46651;SDS011;32377;52.182;5.398;2023-12-22T05:57:21;23.33;;;4.50;;
46651;SDS011;32377;52.182;5.398;2023-12-22T05:59:47;17.27;;;3.28;;
46651;SDS011;32377;52.182;5.398;2023-12-22T06:02:12;21.17;;;3.50;;
46651;SDS011;32377;52.182;5.398;2023-12-22T06:04:38;25.40;;;3.40;;
46651;SDS011;32377;52.182;5.398;2023-12-22T06:07:05;15.73;;;2.67;;
46651;SDS011;32377;52.182;5.398;2023-12-22T06:09:30;23.02;;;3.28;;
46651;SDS011;32377;52.182;5.398;2023-12-22T06:11:56;21.75;;;2.95;;
46651;SDS011;32377;52.182;5.398;2023-12-22T06:14:22;16.70;;;3.65;;
46651;SDS011;32377;52.182;5.398;2023-12-22T06:16:48;20.88;;;3.10;;
46651;SDS011;32377;52.182;5.398;2023-12-22T06:19:14;26.42;;;3.55;;
46651;SDS011;32377;52.182;5.398;2023-12-22T06:21:39;22.45;;;3.28;;
46651;SDS011;32377;52.182;5.398;2023-12-22T06:24:06;34.50;;;3.63;;
46651;SDS011;32377;52.182;5.398;2023-12-22T06:26:32;24.25;;;3.90;;
46651;SDS011;32377;52.182;5.398;2023-12-22T06:28:58;20.73;;;3.42;;
46651;SDS011;32377;52.182;5.398;2023-12-22T06:31:24;25.85;;;4.78;;
46651;SDS011;32377;52.182;5.398;2023-12-22T06:33:51;22.88;;;4.00;;
46651;SDS011;32377;52.182;5.398;2023-12-22T06:36:21;20.90;;;3.40;;
46651;SDS011;32377;52.182;5.398;2023-12-22T06:38:50;18.52;;;4.10;;
46651;SDS011;32377;52.182;5.398;2023-12-22T06:41:26;21.92;;;3.95;;
46651;SDS011;32377;52.182;5.398;2023-12-22T06:43:58;32.40;;;4.93;;
46651;SDS011;32377;52.182;5.398;2023-12-22T06:46:27;29.42;;;4.05;;
46651;SDS011;32377;52.182;5.398;2023-12-22T06:48:54;32.92;;;4.78;;
46651;SDS011;32377;52.182;5.398;2023-12-22T06:51:24;27.63;;;3.97;;
46651;SDS011;32377;52.182;5.398;2023-12-22T06:53:51;25.25;;;4.40;;
46651;SDS011;32377;52.182;5.398;2023-12-22T06:56:18;35.05;;;5.40;;
46651;SDS011;32377;52.182;5.398;2023-12-22T06:58:45;29.05;;;4.03;;
46651;SDS011;32377;52.182;5.398;2023-12-22T07:01:19;22.85;;;4.35;;
46651;SDS011;32377;52.182;5.398;2023-12-22T07:03:56;33.08;;;5.30;;
46651;SDS011;32377;52.182;5.398;2023-12-22T07:06:27;26.10;;;4.38;;
46651;SDS011;32377;52.182;5.398;2023-12-22T07:14:15;28.00;;;5.20;;
46651;SDS011;32377;52.182;5.398;2023-12-22T07:16:41;37.15;;;5.75;;
46651;SDS011;32377;52.182;5.398;2023-12-22T07:19:10;42.05;;;5.45;;
46651;SDS011;32377;52.182;5.398;2023-12-22T07:21:38;43.35;;;5.82;;
46651;SDS011;32377;52.182;5.398;2023-12-22T07:24:04;32.38;;;6.70;;
46651;SDS011;32377;52.182;5.398;2023-12-22T07:26:30;33.85;;;5.10;;
46651;SDS011;32377;52.182;5.398;2023-12-22T07:28:56;29.98;;;4.88;;
46651;SDS011;32377;52.182;5.398;2023-12-22T07:31:21;28.98;;;5.68;;
46651;SDS011;32377;52.182;5.398;2023-12-22T07:33:47;35.40;;;6.00;;
46651;SDS011;32377;52.182;5.398;2023-12-22T07:36:13;41.65;;;6.20;;
46651;SDS011;32377;52.182;5.398;2023-12-22T07:38:38;33.35;;;4.82;;
46651;SDS011;32377;52.182;5.398;2023-12-22T07:41:04;33.33;;;5.18;;
46651;SDS011;32377;52.182;5.398;2023-12-22T07:43:30;35.00;;;6.05;;
46651;SDS011;32377;52.182;5.398;2023-12-22T07:45:56;41.03;;;7.45;;
46651;SDS011;32377;52.182;5.398;2023-12-22T07:48:21;36.70;;;4.93;;
46651;SDS011;32377;52.182;5.398;2023-12-22T07:50:47;37.55;;;5.43;;
46651;SDS011;32377;52.182;5.398;2023-12-22T07:53:12;28.50;;;4.80;;
46651;SDS011;32377;52.182;5.398;2023-12-22T07:55:38;33.75;;;5.47;;
46651;SDS011;32377;52.182;5.398;2023-12-22T07:58:04;29.25;;;4.72;;
46651;SDS011;32377;52.182;5.398;2023-12-22T08:00:30;28.98;;;3.92;;
46651;SDS011;32377;52.182;5.398;2023-12-22T08:02:56;27.17;;;4.20;;
46651;SDS011;32377;52.182;5.398;2023-12-22T08:05:21;27.40;;;5.65;;
46651;SDS011;32377;52.182;5.398;2023-12-22T08:07:47;26.58;;;4.82;;
46651;SDS011;32377;52.182;5.398;2023-12-22T08:10:13;31.00;;;5.45;;
46651;SDS011;32377;52.182;5.398;2023-12-22T08:12:38;33.97;;;6.05;;
46651;SDS011;32377;52.182;5.398;2023-12-22T08:15:04;50.22;;;6.80;;
46651;SDS011;32377;52.182;5.398;2023-12-22T08:17:30;45.10;;;6.55;;
46651;SDS011;32377;52.182;5.398;2023-12-22T08:19:56;35.17;;;5.57;;
46651;SDS011;32377;52.182;5.398;2023-12-22T08:22:22;44.90;;;6.22;;
46651;SDS011;32377;52.182;5.398;2023-12-22T08:24:48;52.30;;;6.05;;
46651;SDS011;32377;52.182;5.398;2023-12-22T08:27:14;52.55;;;6.32;;
46651;SDS011;32377;52.182;5.398;2023-12-22T08:29:40;52.53;;;7.50;;
46651;SDS011;32377;52.182;5.398;2023-12-22T08:32:05;35.97;;;7.45;;
46651;SDS011;32377;52.182;5.398;2023-12-22T08:34:31;40.40;;;5.78;;
46651;SDS011;32377;52.182;5.398;2023-12-22T08:36:57;33.80;;;5.88;;
46651;SDS011;32377;52.182;5.398;2023-12-22T08:39:22;30.88;;;5.30;;
46651;SDS011;32377;52.182;5.398;2023-12-22T08:41:51;34.63;;;4.90;;
46651;SDS011;32377;52.182;5.398;2023-12-22T08:44:18;32.00;;;5.20;;
46651;SDS011;32377;52.182;5.398;2023-12-22T08:46:43;34.22;;;4.93;;
46651;SDS011;32377;52.182;5.398;2023-12-22T08:49:09;32.00;;;6.03;;
46651;SDS011;32377;52.182;5.398;2023-12-22T08:51:35;26.60;;;3.90;;
46651;SDS011;32377;52.182;5.398;2023-12-22T08:54:00;32.25;;;4.82;;
46651;SDS011;32377;52.182;5.398;2023-12-22T08:56:26;38.53;;;6.15;;
46651;SDS011;32377;52.182;5.398;2023-12-22T08:58:52;36.72;;;5.57;;
46651;SDS011;32377;52.182;5.398;2023-12-22T09:01:20;31.80;;;5.22;;
46651;SDS011;32377;52.182;5.398;2023-12-22T09:03:46;25.52;;;4.55;;
46651;SDS011;32377;52.182;5.398;2023-12-22T09:06:14;31.02;;;4.85;;
46651;SDS011;32377;52.182;5.398;2023-12-22T09:08:41;30.75;;;4.63;;
46651;SDS011;32377;52.182;5.398;2023-12-22T09:11:07;32.08;;;5.03;;
46651;SDS011;32377;52.182;5.398;2023-12-22T09:13:33;30.85;;;4.95;;
46651;SDS011;32377;52.182;5.398;2023-12-22T09:16:00;31.58;;;4.78;;
46651;SDS011;32377;52.182;5.398;2023-12-22T09:18:31;30.52;;;4.97;;
46651;SDS011;32377;52.182;5.398;2023-12-22T09:20:57;30.65;;;4.75;;
46651;SDS011;32377;52.182;5.398;2023-12-22T09:23:23;21.67;;;4.30;;
46651;SDS011;32377;52.182;5.398;2023-12-22T09:25:49;26.95;;;4.65;;
46651;SDS011;32377;52.182;5.398;2023-12-22T09:28:14;22.05;;;3.45;;
46651;SDS011;32377;52.182;5.398;2023-12-22T09:30:40;14.20;;;2.20;;
46651;SDS011;32377;52.182;5.398;2023-12-22T09:33:07;12.45;;;2.08;;
46651;SDS011;32377;52.182;5.398;2023-12-22T09:35:36;10.05;;;1.73;;
46651;SDS011;32377;52.182;5.398;2023-12-22T09:38:01;5.95;;;1.38;;
46651;SDS011;32377;52.182;5.398;2023-12-22T09:40:28;8.75;;;1.42;;
46651;SDS011;32377;52.182;5.398;2023-12-22T09:42:57;4.90;;;0.85;;
46651;SDS011;32377;52.182;5.398;2023-12-22T09:45:23;5.03;;;1.20;;
46651;SDS011;32377;52.182;5.398;2023-12-22T09:47:49;6.03;;;1.23;;
46651;SDS011;32377;52.182;5.398;2023-12-22T09:50:16;7.55;;;1.83;;
46651;SDS011;32377;52.182;5.398;2023-12-22T09:52:43;9.43;;;1.70;;
46651;SDS011;32377;52.182;5.398;2023-12-22T09:55:09;14.55;;;1.80;;
46651;SDS011;32377;52.182;5.398;2023-12-22T09:57:35;11.95;;;2.17;;
46651;SDS011;32377;52.182;5.398;2023-12-22T10:00:04;12.38;;;2.47;;
46651;SDS011;32377;52.182;5.398;2023-12-22T10:02:33;16.70;;;2.53;;
46651;SDS011;32377;52.182;5.398;2023-12-22T10:05:00;15.13;;;2.53;;
46651;SDS011;32377;52.182;5.398;2023-12-22T10:07:26;14.98;;;2.72;;
46651;SDS011;32377;52.182;5.398;2023-12-22T10:09:53;14.60;;;3.33;;
46651;SDS011;32377;52.182;5.398;2023-12-22T10:12:21;18.77;;;2.65;;
46651;SDS011;32377;52.182;5.398;2023-12-22T10:14:48;19.42;;;2.92;;
46651;SDS011;32377;52.182;5.398;2023-12-22T10:17:14;18.63;;;3.20;;
46651;SDS011;32377;52.182;5.398;2023-12-22T10:19:41;11.27;;;2.75;;
46651;SDS011;32377;52.182;5.398;2023-12-22T10:22:07;15.45;;;2.78;;
46651;SDS011;32377;52.182;5.398;2023-12-22T10:27:09;16.08;;;2.70;;
46651;SDS011;32377;52.182;5.398;2023-12-22T10:29:36;19.25;;;2.85;;
46651;SDS011;32377;52.182;5.398;2023-12-22T10:32:02;18.70;;;2.72;;
46651;SDS011;32377;52.182;5.398;2023-12-22T10:34:29;10.10;;;2.65;;
46651;SDS011;32377;52.182;5.398;2023-12-22T10:36:56;15.07;;;2.60;;
46651;SDS011;32377;52.182;5.398;2023-12-22T10:39:21;12.43;;;2.80;;
46651;SDS011;32377;52.182;5.398;2023-12-22T10:41:50;17.50;;;2.90;;
46651;SDS011;32377;52.182;5.398;2023-12-22T10:44:16;20.88;;;2.55;;
46651;SDS011;32377;52.182;5.398;2023-12-22T10:46:42;19.98;;;2.97;;
46651;SDS011;32377;52.182;5.398;2023-12-22T10:49:08;9.77;;;2.70;;
46651;SDS011;32377;52.182;5.398;2023-12-22T10:51:34;16.00;;;2.97;;
46651;SDS011;32377;52.182;5.398;2023-12-22T10:53:59;17.58;;;3.10;;
46651;SDS011;32377;52.182;5.398;2023-12-22T10:56:25;14.35;;;2.88;;
46651;SDS011;32377;52.182;5.398;2023-12-22T10:58:53;23.63;;;3.13;;
46651;SDS011;32377;52.182;5.398;2023-12-22T11:01:18;11.32;;;2.10;;
46651;SDS011;32377;52.182;5.398;2023-12-22T11:03:47;15.10;;;2.38;;
46651;SDS011;32377;52.182;5.398;2023-12-22T11:06:15;10.73;;;2.80;;
46651;SDS011;32377;52.182;5.398;2023-12-22T11:08:45;19.63;;;3.08;;
46651;SDS011;32377;52.182;5.398;2023-12-22T11:11:23;12.63;;;2.70;;
46651;SDS011;32377;52.182;5.398;2023-12-22T11:13:55;18.02;;;2.47;;
46651;SDS011;32377;52.182;5.398;2023-12-22T11:16:22;14.32;;;3.15;;
46651;SDS011;32377;52.182;5.398;2023-12-22T11:18:49;14.90;;;2.92;;
46651;SDS011;32377;52.182;5.398;2023-12-22T11:21:19;13.90;;;2.05;;
46651;SDS011;32377;52.182;5.398;2023-12-22T11:23:45;14.13;;;2.50;;
46651;SDS011;32377;52.182;5.398;2023-12-22T11:26:12;16.73;;;2.28;;
46651;SDS011;32377;52.182;5.398;2023-12-22T11:28:40;10.43;;;1.98;;
46651;SDS011;32377;52.182;5.398;2023-12-22T11:31:09;15.77;;;2.10;;
46651;SDS011;32377;52.182;5.398;2023-12-22T11:33:36;14.75;;;2.58;;
46651;SDS011;32377;52.182;5.398;2023-12-22T11:36:04;16.40;;;2.00;;
46651;SDS011;32377;52.182;5.398;2023-12-22T11:38:31;14.18;;;2.63;;
46651;SDS011;32377;52.182;5.398;2023-12-22T11:40:56;10.80;;;2.17;;
46651;SDS011;32377;52.182;5.398;2023-12-22T11:43:25;24.25;;;3.38;;
46651;SDS011;32377;52.182;5.398;2023-12-22T11:45:51;16.67;;;2.42;;
46651;SDS011;32377;52.182;5.398;2023-12-22T11:48:16;16.45;;;2.53;;
46651;SDS011;32377;52.182;5.398;2023-12-22T11:50:42;19.67;;;2.80;;
46651;SDS011;32377;52.182;5.398;2023-12-22T11:56:03;14.02;;;2.55;;
46651;SDS011;32377;52.182;5.398;2023-12-22T12:01:00;20.30;;;2.50;;
46651;SDS011;32377;52.182;5.398;2023-12-22T12:03:29;12.43;;;2.65;;
46651;SDS011;32377;52.182;5.398;2023-12-22T12:11:18;13.23;;;1.95;;
46651;SDS011;32377;52.182;5.398;2023-12-22T12:13:45;17.48;;;2.65;;
46651;SDS011;32377;52.182;5.398;2023-12-22T12:16:12;16.25;;;2.38;;
46651;SDS011;32377;52.182;5.398;2023-12-22T12:18:39;14.93;;;2.25;;
46651;SDS011;32377;52.182;5.398;2023-12-22T12:21:08;19.48;;;3.35;;
46651;SDS011;32377;52.182;5.398;2023-12-22T12:23:35;16.10;;;2.22;;
46651;SDS011;32377;52.182;5.398;2023-12-22T12:26:02;14.40;;;2.58;;
46651;SDS011;32377;52.182;5.398;2023-12-22T12:28:28;10.95;;;1.92;;
46651;SDS011;32377;52.182;5.398;2023-12-22T12:31:02;11.90;;;2.28;;
46651;SDS011;32377;52.182;5.398;2023-12-22T12:33:30;13.40;;;2.45;;
46651;SDS011;32377;52.182;5.398;2023-12-22T12:35:56;13.50;;;2.88;;
46651;SDS011;32377;52.182;5.398;2023-12-22T12:38:25;7.70;;;2.13;;
46651;SDS011;32377;52.182;5.398;2023-12-22T12:40:59;9.75;;;2.30;;
46651;SDS011;32377;52.182;5.398;2023-12-22T12:43:28;11.55;;;1.98;;
46651;SDS011;32377;52.182;5.398;2023-12-22T12:45:54;13.63;;;2.60;;
46651;SDS011;32377;52.182;5.398;2023-12-22T12:48:20;12.48;;;2.08;;
46651;SDS011;32377;52.182;5.398;2023-12-22T12:50:47;18.15;;;2.85;;
46651;SDS011;32377;52.182;5.398;2023-12-22T12:53:12;10.15;;;2.10;;
46651;SDS011;32377;52.182;5.398;2023-12-22T12:55:38;12.77;;;2.17;;
46651;SDS011;32377;52.182;5.398;2023-12-22T12:58:04;13.43;;;2.67;;
46651;SDS011;32377;52.182;5.398;2023-12-22T13:00:31;21.65;;;3.40;;
46651;SDS011;32377;52.182;5.398;2023-12-22T13:03:01;15.68;;;2.13;;
46651;SDS011;32377;52.182;5.398;2023-12-22T13:05:29;13.00;;;2.50;;
46651;SDS011;32377;52.182;5.398;2023-12-22T13:10:37;16.77;;;2.40;;
46651;SDS011;32377;52.182;5.398;2023-12-22T13:13:03;12.98;;;2.40;;
46651;SDS011;32377;52.182;5.398;2023-12-22T13:15:29;13.23;;;2.33;;
46651;SDS011;32377;52.182;5.398;2023-12-22T13:17:55;15.02;;;2.60;;
46651;SDS011;32377;52.182;5.398;2023-12-22T13:20:21;13.93;;;2.75;;
46651;SDS011;32377;52.182;5.398;2023-12-22T13:22:47;11.85;;;1.83;;
46651;SDS011;32377;52.182;5.398;2023-12-22T13:25:14;19.80;;;2.35;;
46651;SDS011;32377;52.182;5.398;2023-12-22T13:27:51;11.40;;;2.03;;
46651;SDS011;32377;52.182;5.398;2023-12-22T13:32:58;17.42;;;2.50;;
46651;SDS011;32377;52.182;5.398;2023-12-22T13:35:24;13.48;;;2.55;;
46651;SDS011;32377;52.182;5.398;2023-12-22T13:37:51;9.75;;;2.42;;
46651;SDS011;32377;52.182;5.398;2023-12-22T13:40:16;12.60;;;2.70;;
46651;SDS011;32377;52.182;5.398;2023-12-22T13:42:42;14.48;;;1.85;;
46651;SDS011;32377;52.182;5.398;2023-12-22T13:45:11;15.73;;;2.80;;
46651;SDS011;32377;52.182;5.398;2023-12-22T13:47:43;11.32;;;2.35;;
46651;SDS011;32377;52.182;5.398;2023-12-22T13:50:14;18.42;;;3.25;;
46651;SDS011;32377;52.182;5.398;2023-12-22T13:52:41;11.07;;;2.45;;
46651;SDS011;32377;52.182;5.398;2023-12-22T13:55:12;13.35;;;2.00;;
46651;SDS011;32377;52.182;5.398;2023-12-22T13:57:38;9.98;;;2.38;;
46651;SDS011;32377;52.182;5.398;2023-12-22T14:02:45;17.80;;;2.55;;
46651;SDS011;32377;52.182;5.398;2023-12-22T14:05:11;10.20;;;1.85;;
46651;SDS011;32377;52.182;5.398;2023-12-22T14:07:37;17.58;;;2.63;;
46651;SDS011;32377;52.182;5.398;2023-12-22T14:10:09;13.63;;;2.42;;
46651;SDS011;32377;52.182;5.398;2023-12-22T14:12:36;15.77;;;2.60;;
46651;SDS011;32377;52.182;5.398;2023-12-22T14:15:08;13.18;;;2.05;;
46651;SDS011;32377;52.182;5.398;2023-12-22T14:17:35;17.88;;;3.50;;
46651;SDS011;32377;52.182;5.398;2023-12-22T14:20:01;16.77;;;3.35;;
46651;SDS011;32377;52.182;5.398;2023-12-22T14:22:29;18.13;;;3.72;;
46651;SDS011;32377;52.182;5.398;2023-12-22T14:24:54;15.90;;;3.08;;
46651;SDS011;32377;52.182;5.398;2023-12-22T14:27:22;23.63;;;3.25;;
46651;SDS011;32377;52.182;5.398;2023-12-22T14:29:48;15.15;;;2.58;;
46651;SDS011;32377;52.182;5.398;2023-12-22T14:32:14;16.85;;;3.25;;
46651;SDS011;32377;52.182;5.398;2023-12-22T14:34:46;23.15;;;4.03;;
46651;SDS011;32377;52.182;5.398;2023-12-22T14:37:11;20.33;;;3.13;;
46651;SDS011;32377;52.182;5.398;2023-12-22T14:39:37;23.98;;;3.97;;
46651;SDS011;32377;52.182;5.398;2023-12-22T14:42:03;18.13;;;3.03;;
46651;SDS011;32377;52.182;5.398;2023-12-22T14:44:29;20.80;;;3.58;;
46651;SDS011;32377;52.182;5.398;2023-12-22T14:46:54;24.50;;;3.38;;
46651;SDS011;32377;52.182;5.398;2023-12-22T14:49:20;20.50;;;3.45;;
46651;SDS011;32377;52.182;5.398;2023-12-22T14:51:46;22.02;;;2.90;;
46651;SDS011;32377;52.182;5.398;2023-12-22T14:54:17;18.75;;;2.70;;
46651;SDS011;32377;52.182;5.398;2023-12-22T14:56:42;18.50;;;2.92;;
46651;SDS011;32377;52.182;5.398;2023-12-22T14:59:08;22.52;;;3.72;;
46651;SDS011;32377;52.182;5.398;2023-12-22T15:01:35;15.88;;;2.50;;